sensor_id;sensor_type;location;lat;lon;timestamp;P1;durP1;ratioP1;P2;durP2;ratioP2
13432;SDS011;6789;47.678;9.158;2023-07-13T00:03:02;4.72;;;3.20;;
13432;SDS011;6789;47.678;9.158;2023-07-13T00:07:55;3.15;;;2.72;;
13432;SDS011;6789;47.678;9.158;2023-07-13T00:12:48;6.63;;;3.17;;
13432;SDS011;6789;47.678;9.158;2023-07-13T00:17:40;5.15;;;2.83;;
13432;SDS011;6789;47.678;9.158;2023-07-13T00:22:32;3.58;;;2.60;;
13432;SDS011;6789;47.678;9.158;2023-07-13T00:27:24;3.75;;;2.88;;
13432;SDS011;6789;47.678;9.158;2023-07-13T00:32:18;5.70;;;2.97;;
13432;SDS011;6789;47.678;9.158;2023-07-13T00:37:10;3.63;;;2.45;;
13432;SDS011;6789;47.678;9.158;2023-07-13T00:42:02;5.47;;;2.55;;
13432;SDS011;6789;47.678;9.158;2023-07-13T00:52:04;3.13;;;2.40;;
13432;SDS011;6789;47.678;9.158;2023-07-13T00:57:00;3.88;;;2.53;;
13432;SDS011;6789;47.678;9.158;2023-07-13T01:07:06;3.28;;;2.75;;
13432;SDS011;6789;47.678;9.158;2023-07-13T01:11:58;3.47;;;2.60;;
13432;SDS011;6789;47.678;9.158;2023-07-13T01:21:58;5.30;;;2.78;;
13432;SDS011;6789;47.678;9.158;2023-07-13T01:26:50;5.00;;;2.60;;
13432;SDS011;6789;47.678;9.158;2023-07-13T01:31:42;3.08;;;2.60;;
13432;SDS011;6789;47.678;9.158;2023-07-13T01:36:36;3.40;;;2.67;;
13432;SDS011;6789;47.678;9.158;2023-07-13T01:41:42;2.88;;;2.42;;
13432;SDS011;6789;47.678;9.158;2023-07-13T01:46:34;4.18;;;2.60;;
13432;SDS011;6789;47.678;9.158;2023-07-13T01:51:25;4.25;;;2.55;;
13432;SDS011;6789;47.678;9.158;2023-07-13T01:56:17;4.22;;;2.50;;
13432;SDS011;6789;47.678;9.158;2023-07-13T02:01:09;3.53;;;3.00;;
13432;SDS011;6789;47.678;9.158;2023-07-13T02:06:01;5.32;;;2.78;;
13432;SDS011;6789;47.678;9.158;2023-07-13T02:10:54;5.10;;;2.88;;
13432;SDS011;6789;47.678;9.158;2023-07-13T02:15:45;4.25;;;2.80;;
13432;SDS011;6789;47.678;9.158;2023-07-13T02:20:40;3.30;;;2.60;;
13432;SDS011;6789;47.678;9.158;2023-07-13T02:31:18;4.03;;;3.05;;
13432;SDS011;6789;47.678;9.158;2023-07-13T02:37:01;4.60;;;3.00;;
13432;SDS011;6789;47.678;9.158;2023-07-13T02:41:53;5.25;;;3.05;;
13432;SDS011;6789;47.678;9.158;2023-07-13T02:46:45;5.47;;;2.97;;
13432;SDS011;6789;47.678;9.158;2023-07-13T02:51:37;4.78;;;2.88;;
13432;SDS011;6789;47.678;9.158;2023-07-13T02:56:29;5.03;;;2.72;;
13432;SDS011;6789;47.678;9.158;2023-07-13T03:01:23;5.43;;;3.00;;
13432;SDS011;6789;47.678;9.158;2023-07-13T03:06:16;5.63;;;3.08;;
13432;SDS011;6789;47.678;9.158;2023-07-13T03:11:12;4.03;;;2.60;;
13432;SDS011;6789;47.678;9.158;2023-07-13T03:16:07;4.88;;;2.88;;
13432;SDS011;6789;47.678;9.158;2023-07-13T03:21:02;3.60;;;2.45;;
13432;SDS011;6789;47.678;9.158;2023-07-13T03:26:28;4.70;;;2.30;;
13432;SDS011;6789;47.678;9.158;2023-07-13T03:31:15;4.32;;;3.00;;
13432;SDS011;6789;47.678;9.158;2023-07-13T03:36:15;4.88;;;2.70;;
13432;SDS011;6789;47.678;9.158;2023-07-13T03:41:11;5.35;;;3.30;;
13432;SDS011;6789;47.678;9.158;2023-07-13T03:46:03;6.60;;;3.50;;
13432;SDS011;6789;47.678;9.158;2023-07-13T03:50:55;5.20;;;2.70;;
13432;SDS011;6789;47.678;9.158;2023-07-13T03:55:46;3.40;;;2.70;;
13432;SDS011;6789;47.678;9.158;2023-07-13T04:00:38;4.03;;;2.78;;
13432;SDS011;6789;47.678;9.158;2023-07-13T04:05:30;3.17;;;2.58;;
13432;SDS011;6789;47.678;9.158;2023-07-13T04:10:22;2.90;;;2.60;;
13432;SDS011;6789;47.678;9.158;2023-07-13T04:15:13;3.22;;;2.50;;
13432;SDS011;6789;47.678;9.158;2023-07-13T04:20:05;3.80;;;2.67;;
13432;SDS011;6789;47.678;9.158;2023-07-13T04:24:58;4.75;;;2.90;;
13432;SDS011;6789;47.678;9.158;2023-07-13T04:29:50;2.88;;;2.35;;
13432;SDS011;6789;47.678;9.158;2023-07-13T04:34:41;5.70;;;2.42;;
13432;SDS011;6789;47.678;9.158;2023-07-13T04:39:58;2.55;;;2.35;;
13432;SDS011;6789;47.678;9.158;2023-07-13T05:32:32;3.90;;;2.70;;
13432;SDS011;6789;47.678;9.158;2023-07-13T05:50:04;2.78;;;2.13;;
13432;SDS011;6789;47.678;9.158;2023-07-13T05:55:15;3.00;;;2.25;;
13432;SDS011;6789;47.678;9.158;2023-07-13T07:36:32;3.47;;;1.85;;
13432;SDS011;6789;47.678;9.158;2023-07-13T07:51:53;4.40;;;1.90;;
13432;SDS011;6789;47.678;9.158;2023-07-13T08:44:20;2.33;;;1.30;;
13432;SDS011;6789;47.678;9.158;2023-07-13T08:50:05;4.03;;;2.20;;
13432;SDS011;6789;47.678;9.158;2023-07-13T08:55:24;4.90;;;1.98;;
13432;SDS011;6789;47.678;9.158;2023-07-13T10:44:30;4.47;;;1.50;;
13432;SDS011;6789;47.678;9.158;2023-07-13T10:50:15;1.98;;;1.25;;
13432;SDS011;6789;47.678;9.158;2023-07-13T10:56:24;3.70;;;1.30;;
13432;SDS011;6789;47.678;9.158;2023-07-13T14:09:35;2.17;;;1.80;;
13432;SDS011;6789;47.678;9.158;2023-07-13T14:14:41;2.17;;;1.60;;
13432;SDS011;6789;47.678;9.158;2023-07-13T14:19:49;6.43;;;1.90;;
13432;SDS011;6789;47.678;9.158;2023-07-13T14:24:53;4.18;;;1.52;;
13432;SDS011;6789;47.678;9.158;2023-07-13T14:29:56;2.55;;;1.60;;
13432;SDS011;6789;47.678;9.158;2023-07-13T14:34:48;2.78;;;1.50;;
13432;SDS011;6789;47.678;9.158;2023-07-13T14:39:42;1.67;;;1.58;;
13432;SDS011;6789;47.678;9.158;2023-07-13T14:44:37;2.95;;;1.80;;
13432;SDS011;6789;47.678;9.158;2023-07-13T14:49:35;2.17;;;1.42;;
13432;SDS011;6789;47.678;9.158;2023-07-13T14:54:33;1.65;;;1.50;;
13432;SDS011;6789;47.678;9.158;2023-07-13T14:59:29;1.92;;;1.50;;
13432;SDS011;6789;47.678;9.158;2023-07-13T15:04:21;2.22;;;1.65;;
13432;SDS011;6789;47.678;9.158;2023-07-13T15:09:13;1.95;;;1.48;;
13432;SDS011;6789;47.678;9.158;2023-07-13T15:14:07;1.92;;;1.63;;
13432;SDS011;6789;47.678;9.158;2023-07-13T15:18:59;3.17;;;2.10;;
13432;SDS011;6789;47.678;9.158;2023-07-13T15:23:51;2.40;;;1.50;;
13432;SDS011;6789;47.678;9.158;2023-07-13T15:28:47;2.13;;;1.88;;
13432;SDS011;6789;47.678;9.158;2023-07-13T15:33:39;4.68;;;2.00;;
13432;SDS011;6789;47.678;9.158;2023-07-13T15:38:33;2.25;;;1.73;;
13432;SDS011;6789;47.678;9.158;2023-07-13T15:43:32;2.95;;;1.80;;
13432;SDS011;6789;47.678;9.158;2023-07-13T15:48:25;7.20;;;2.60;;
13432;SDS011;6789;47.678;9.158;2023-07-13T15:53:23;2.05;;;1.75;;
13432;SDS011;6789;47.678;9.158;2023-07-13T15:58:20;2.25;;;1.90;;
13432;SDS011;6789;47.678;9.158;2023-07-13T16:03:12;4.32;;;2.05;;
13432;SDS011;6789;47.678;9.158;2023-07-13T16:08:06;2.05;;;1.40;;
13432;SDS011;6789;47.678;9.158;2023-07-13T16:13:14;2.65;;;1.75;;
13432;SDS011;6789;47.678;9.158;2023-07-13T16:18:07;2.08;;;1.70;;
13432;SDS011;6789;47.678;9.158;2023-07-13T16:22:59;2.85;;;1.10;;
13432;SDS011;6789;47.678;9.158;2023-07-13T16:28:00;1.50;;;1.23;;
13432;SDS011;6789;47.678;9.158;2023-07-13T16:32:52;2.72;;;1.25;;
13432;SDS011;6789;47.678;9.158;2023-07-13T16:37:44;1.55;;;1.40;;
13432;SDS011;6789;47.678;9.158;2023-07-13T16:42:56;2.50;;;1.67;;
13432;SDS011;6789;47.678;9.158;2023-07-13T16:47:50;1.85;;;1.35;;
13432;SDS011;6789;47.678;9.158;2023-07-13T16:52:50;1.55;;;1.45;;
13432;SDS011;6789;47.678;9.158;2023-07-13T16:57:46;2.40;;;1.10;;
13432;SDS011;6789;47.678;9.158;2023-07-13T17:02:39;2.05;;;1.15;;
13432;SDS011;6789;47.678;9.158;2023-07-13T17:07:31;2.28;;;1.00;;
13432;SDS011;6789;47.678;9.158;2023-07-13T17:12:24;6.00;;;1.27;;
13432;SDS011;6789;47.678;9.158;2023-07-13T17:17:16;1.88;;;1.23;;
13432;SDS011;6789;47.678;9.158;2023-07-13T17:22:18;2.92;;;1.02;;
13432;SDS011;6789;47.678;9.158;2023-07-13T17:27:10;1.15;;;1.02;;
13432;SDS011;6789;47.678;9.158;2023-07-13T17:32:06;3.63;;;1.30;;
13432;SDS011;6789;47.678;9.158;2023-07-13T17:37:08;2.45;;;1.25;;
13432;SDS011;6789;47.678;9.158;2023-07-13T17:42:06;2.95;;;1.08;;
13432;SDS011;6789;47.678;9.158;2023-07-13T17:46:58;2.38;;;1.20;;
13432;SDS011;6789;47.678;9.158;2023-07-13T17:51:51;2.40;;;1.10;;
13432;SDS011;6789;47.678;9.158;2023-07-13T17:56:47;1.73;;;1.10;;
13432;SDS011;6789;47.678;9.158;2023-07-13T18:01:39;1.73;;;0.93;;
13432;SDS011;6789;47.678;9.158;2023-07-13T18:06:33;2.70;;;1.25;;
13432;SDS011;6789;47.678;9.158;2023-07-13T18:11:29;3.78;;;1.30;;
13432;SDS011;6789;47.678;9.158;2023-07-13T18:16:22;1.10;;;0.98;;
13432;SDS011;6789;47.678;9.158;2023-07-13T18:21:18;1.20;;;1.10;;
13432;SDS011;6789;47.678;9.158;2023-07-13T18:26:12;2.95;;;1.13;;
13432;SDS011;6789;47.678;9.158;2023-07-13T18:31:12;2.33;;;1.35;;
13432;SDS011;6789;47.678;9.158;2023-07-13T18:36:10;3.13;;;1.70;;
13432;SDS011;6789;47.678;9.158;2023-07-13T18:41:08;1.42;;;1.30;;
13432;SDS011;6789;47.678;9.158;2023-07-13T18:46:09;1.48;;;1.10;;
13432;SDS011;6789;47.678;9.158;2023-07-13T18:51:12;1.40;;;1.30;;
13432;SDS011;6789;47.678;9.158;2023-07-13T18:56:05;1.95;;;1.25;;
13432;SDS011;6789;47.678;9.158;2023-07-13T19:00:58;2.08;;;1.42;;
13432;SDS011;6789;47.678;9.158;2023-07-13T19:05:52;2.03;;;1.25;;
13432;SDS011;6789;47.678;9.158;2023-07-13T19:10:52;2.15;;;1.35;;
13432;SDS011;6789;47.678;9.158;2023-07-13T19:15:44;2.95;;;1.38;;
13432;SDS011;6789;47.678;9.158;2023-07-13T19:20:38;2.28;;;1.50;;
13432;SDS011;6789;47.678;9.158;2023-07-13T19:25:32;2.17;;;1.55;;
13432;SDS011;6789;47.678;9.158;2023-07-13T19:30:24;2.42;;;1.38;;
13432;SDS011;6789;47.678;9.158;2023-07-13T19:35:16;5.63;;;1.40;;
13432;SDS011;6789;47.678;9.158;2023-07-13T19:40:20;2.38;;;1.50;;
13432;SDS011;6789;47.678;9.158;2023-07-13T19:45:19;4.13;;;1.48;;
13432;SDS011;6789;47.678;9.158;2023-07-13T19:50:14;2.75;;;1.30;;
13432;SDS011;6789;47.678;9.158;2023-07-13T19:55:15;4.28;;;1.58;;
13432;SDS011;6789;47.678;9.158;2023-07-13T20:00:13;2.67;;;1.30;;
13432;SDS011;6789;47.678;9.158;2023-07-13T20:05:08;2.58;;;1.30;;
13432;SDS011;6789;47.678;9.158;2023-07-13T20:10:00;3.50;;;1.50;;
13432;SDS011;6789;47.678;9.158;2023-07-13T20:14:53;3.58;;;2.95;;
13432;SDS011;6789;47.678;9.158;2023-07-13T20:19:45;2.88;;;1.50;;
13432;SDS011;6789;47.678;9.158;2023-07-13T20:24:38;2.30;;;1.58;;
13432;SDS011;6789;47.678;9.158;2023-07-13T20:29:30;4.82;;;1.55;;
13432;SDS011;6789;47.678;9.158;2023-07-13T20:34:24;4.85;;;3.22;;
13432;SDS011;6789;47.678;9.158;2023-07-13T20:39:20;2.83;;;2.10;;
13432;SDS011;6789;47.678;9.158;2023-07-13T20:44:13;3.42;;;2.08;;
13432;SDS011;6789;47.678;9.158;2023-07-13T20:49:05;3.50;;;2.35;;
13432;SDS011;6789;47.678;9.158;2023-07-13T20:54:00;5.68;;;2.80;;
13432;SDS011;6789;47.678;9.158;2023-07-13T20:58:52;5.75;;;3.00;;
13432;SDS011;6789;47.678;9.158;2023-07-13T21:03:44;4.70;;;2.50;;
13432;SDS011;6789;47.678;9.158;2023-07-13T21:08:36;3.20;;;2.40;;
13432;SDS011;6789;47.678;9.158;2023-07-13T21:13:28;6.30;;;2.45;;
13432;SDS011;6789;47.678;9.158;2023-07-13T21:18:23;5.28;;;3.08;;
13432;SDS011;6789;47.678;9.158;2023-07-13T21:28:23;2.13;;;1.70;;
13432;SDS011;6789;47.678;9.158;2023-07-13T21:33:17;2.13;;;1.70;;
13432;SDS011;6789;47.678;9.158;2023-07-13T21:38:20;3.50;;;1.77;;
13432;SDS011;6789;47.678;9.158;2023-07-13T21:43:18;2.10;;;1.83;;
13432;SDS011;6789;47.678;9.158;2023-07-13T21:48:10;3.50;;;2.20;;
13432;SDS011;6789;47.678;9.158;2023-07-13T21:53:10;2.30;;;1.80;;
13432;SDS011;6789;47.678;9.158;2023-07-13T21:58:18;3.90;;;1.50;;
13432;SDS011;6789;47.678;9.158;2023-07-13T22:03:21;2.45;;;1.63;;
13432;SDS011;6789;47.678;9.158;2023-07-13T22:08:39;2.05;;;1.75;;
13432;SDS011;6789;47.678;9.158;2023-07-13T22:13:31;3.55;;;1.88;;
13432;SDS011;6789;47.678;9.158;2023-07-13T22:18:23;2.05;;;1.70;;
13432;SDS011;6789;47.678;9.158;2023-07-13T22:23:30;2.90;;;1.90;;
13432;SDS011;6789;47.678;9.158;2023-07-13T22:28:23;6.47;;;1.80;;
13432;SDS011;6789;47.678;9.158;2023-07-13T22:33:19;2.40;;;1.80;;
13432;SDS011;6789;47.678;9.158;2023-07-13T22:38:18;1.77;;;1.67;;
13432;SDS011;6789;47.678;9.158;2023-07-13T22:43:24;4.60;;;1.83;;
13432;SDS011;6789;47.678;9.158;2023-07-13T22:49:18;3.05;;;1.75;;
13432;SDS011;6789;47.678;9.158;2023-07-13T22:54:10;4.53;;;1.90;;
13432;SDS011;6789;47.678;9.158;2023-07-13T22:59:03;4.13;;;1.80;;
13432;SDS011;6789;47.678;9.158;2023-07-13T23:09:20;5.32;;;1.63;;
13432;SDS011;6789;47.678;9.158;2023-07-13T23:14:39;3.50;;;1.65;;
13432;SDS011;6789;47.678;9.158;2023-07-13T23:19:44;2.83;;;1.60;;
13432;SDS011;6789;47.678;9.158;2023-07-13T23:25:04;1.30;;;1.20;;
13432;SDS011;6789;47.678;9.158;2023-07-13T23:30:12;2.33;;;1.23;;
13432;SDS011;6789;47.678;9.158;2023-07-13T23:35:09;2.75;;;1.65;;
13432;SDS011;6789;47.678;9.158;2023-07-13T23:45:18;3.55;;;1.63;;
13432;SDS011;6789;47.678;9.158;2023-07-13T23:50:20;2.20;;;1.70;;
13432;SDS011;6789;47.678;9.158;2023-07-13T23:55:16;4.13;;;1.58;;
